createdAt,value
2019-02-19T00:00:51.354Z,92.75
2019-02-19T00:01:51.347Z,92.37
2019-02-19T00:02:51.340Z,92.85
2019-02-19T00:03:51.335Z,92.75
2019-02-19T00:04:51.326Z,92.75
2019-02-19T00:05:51.316Z,93.23
2019-02-19T00:06:51.306Z,93.84
2019-02-19T00:07:51.301Z,93.75
2019-02-19T00:08:51.291Z,94.32
2019-02-19T00:09:51.285Z,94.13
2019-02-19T00:10:51.277Z,94.13
2019-02-19T00:11:51.266Z,94.13
2019-02-19T00:12:51.259Z,94.51
2019-02-19T00:13:51.250Z,95.07
2019-02-19T00:14:51.243Z,95.36
2019-02-19T00:15:51.234Z,95.36
2019-02-19T00:16:51.232Z,95.46
2019-02-19T00:17:51.220Z,95.46
2019-02-19T00:18:51.211Z,95.17
2019-02-19T00:19:51.205Z,95.55
2019-02-19T00:20:51.194Z,95.93
2019-02-19T00:21:51.185Z,96.03
2019-02-19T00:22:51.179Z,96.22
2019-02-19T00:23:51.169Z,97.17
2019-02-19T00:24:51.163Z,96.22
2019-02-19T00:25:51.155Z,96.03
2019-02-19T00:26:51.146Z,95.84
2019-02-19T00:27:51.141Z,95.74
2019-02-19T00:28:51.129Z,95.93
2019-02-19T00:29:51.122Z,96.50
2019-02-19T00:30:51.111Z,96.78
2019-02-19T00:31:51.105Z,97.17
2019-02-19T00:32:51.102Z,96.97
2019-02-19T00:33:51.090Z,96.78
2019-02-19T00:34:51.080Z,96.45
2019-02-19T00:35:51.072Z,96.59
2019-02-19T00:36:51.064Z,96.31
2019-02-19T00:37:51.053Z,97.02
2019-02-19T00:38:51.045Z,97.40
2019-02-19T00:39:51.042Z,97.36
2019-02-19T00:40:51.030Z,96.69
2019-02-19T00:41:51.022Z,96.50
2019-02-19T00:42:51.010Z,96.31
2019-02-19T00:43:51.005Z,96.88
2019-02-19T00:44:51.003Z,97.02
2019-02-19T00:45:50.988Z,96.17
2019-02-19T00:46:50.982Z,96.36
2019-02-19T00:47:50.970Z,96.55
2019-02-19T00:48:50.965Z,97.21
2019-02-19T00:49:50.954Z,96.92
2019-02-19T00:50:50.947Z,96.45
2019-02-19T00:51:50.934Z,97.12
2019-02-19T00:52:50.929Z,97.21
2019-02-19T00:53:50.920Z,97.31
2019-02-19T00:54:50.913Z,97.69
2019-02-19T00:55:50.905Z,97.69
2019-02-19T00:56:50.890Z,97.50
2019-02-19T00:57:50.885Z,98.44
2019-02-19T00:58:50.878Z,97.69
2019-02-19T00:59:50.873Z,97.78
2019-02-19T01:00:50.867Z,98.63
2019-02-19T01:01:50.853Z,99.49
2019-02-19T01:02:50.845Z,99.20
2019-02-19T01:03:50.837Z,98.63
2019-02-19T01:04:50.828Z,99.58
2019-02-19T01:05:50.821Z,99.11
2019-02-19T01:06:50.814Z,98.73
2019-02-19T01:07:50.806Z,99.20
2019-02-19T01:08:50.795Z,98.82
2019-02-19T01:09:50.795Z,99.58
2019-02-19T01:10:50.781Z,99.72
2019-02-19T01:11:50.774Z,99.96
2019-02-19T01:12:50.763Z,99.91
2019-02-19T01:13:50.753Z,99.99
2019-02-19T01:14:50.785Z,99.91
2019-02-19T01:15:50.737Z,99.99
2019-02-19T01:16:50.720Z,99.99
2019-02-19T01:17:50.711Z,99.99
2019-02-19T01:18:50.709Z,99.99
2019-02-19T01:19:50.706Z,99.99
2019-02-19T01:20:50.687Z,99.99
2019-02-19T01:21:50.683Z,99.99
2019-02-19T01:22:50.670Z,99.99
2019-02-19T01:23:50.665Z,99.99
2019-02-19T01:24:50.652Z,99.99
2019-02-19T01:25:50.646Z,99.99
2019-02-19T01:26:50.635Z,99.99
2019-02-19T01:27:50.630Z,99.99
2019-02-19T01:28:50.619Z,99.99
2019-02-19T01:29:50.611Z,99.99
2019-02-19T01:30:50.601Z,99.99
2019-02-19T01:31:50.592Z,99.99
2019-02-19T01:32:50.583Z,99.99
2019-02-19T01:33:50.580Z,99.99
2019-02-19T01:34:50.567Z,99.99
2019-02-19T01:35:50.557Z,99.99
2019-02-19T01:36:50.547Z,99.99
2019-02-19T01:37:50.540Z,99.99
2019-02-19T01:38:50.532Z,99.99
2019-02-19T01:39:50.524Z,99.99
2019-02-19T01:40:50.513Z,99.99
2019-02-19T01:41:50.507Z,99.99
2019-02-19T01:42:50.497Z,99.99
2019-02-19T01:43:50.488Z,99.99
2019-02-19T01:44:50.484Z,99.99
2019-02-19T01:45:50.475Z,99.99
2019-02-19T01:46:50.460Z,99.99
2019-02-19T01:47:50.452Z,99.99
2019-02-19T01:48:50.444Z,99.99
2019-02-19T01:49:50.435Z,99.99
2019-02-19T01:50:50.425Z,99.99
2019-02-19T01:51:50.418Z,99.99
2019-02-19T01:52:50.409Z,99.99
2019-02-19T01:53:50.402Z,99.99
2019-02-19T01:54:50.393Z,99.99
2019-02-19T01:55:50.384Z,99.99
2019-02-19T01:56:50.374Z,99.99
2019-02-19T01:57:50.368Z,99.99
2019-02-19T01:58:50.352Z,99.99
2019-02-19T01:59:50.353Z,99.99
2019-02-19T02:00:50.340Z,99.99
2019-02-19T02:01:50.330Z,99.99
2019-02-19T02:02:50.321Z,99.99
2019-02-19T02:03:50.314Z,99.99
2019-02-19T02:04:50.303Z,99.99
2019-02-19T02:05:50.294Z,99.99
2019-02-19T02:06:50.288Z,99.99
2019-02-19T02:07:50.275Z,99.99
2019-02-19T02:08:50.262Z,99.99
2019-02-19T02:09:50.258Z,99.99
2019-02-19T02:10:50.249Z,99.99
2019-02-19T02:11:50.239Z,99.99
2019-02-19T02:12:50.235Z,99.99
2019-02-19T02:13:50.224Z,99.99
2019-02-19T02:14:50.215Z,99.99
2019-02-19T02:15:50.206Z,99.99
2019-02-19T02:16:50.195Z,99.99
2019-02-19T02:17:50.188Z,99.99
2019-02-19T02:18:50.177Z,99.99
2019-02-19T02:19:50.173Z,99.99
2019-02-19T02:20:50.160Z,99.99
2019-02-19T02:21:50.155Z,99.99
2019-02-19T02:22:50.148Z,99.99
2019-02-19T02:23:50.136Z,99.99
2019-02-19T02:24:50.126Z,99.99
2019-02-19T02:25:50.115Z,99.99
2019-02-19T02:26:50.103Z,99.99
2019-02-19T02:27:50.095Z,99.99
2019-02-19T02:28:50.088Z,99.99
2019-02-19T02:29:50.081Z,99.99
2019-02-19T02:30:50.075Z,99.99
2019-02-19T02:31:50.061Z,99.99
2019-02-19T02:32:50.054Z,99.99
2019-02-19T02:33:50.042Z,99.99
2019-02-19T02:34:50.039Z,99.99
2019-02-19T02:35:50.033Z,99.99
2019-02-19T02:36:50.022Z,99.99
2019-02-19T02:37:50.007Z,99.99
2019-02-19T02:38:49.997Z,99.99
2019-02-19T02:39:49.990Z,99.99
2019-02-19T02:40:49.977Z,99.99
2019-02-19T02:41:49.971Z,99.99
2019-02-19T02:42:49.961Z,99.99
2019-02-19T02:43:49.955Z,99.99
2019-02-19T02:44:49.945Z,99.99
2019-02-19T02:45:53.527Z,99.99
2019-02-19T02:46:49.931Z,99.99
2019-02-19T02:47:49.918Z,99.99
2019-02-19T02:48:49.917Z,99.99
2019-02-19T02:49:49.902Z,99.99
2019-02-19T02:50:49.888Z,99.99
2019-02-19T02:51:49.881Z,99.99
2019-02-19T02:52:49.872Z,99.99
2019-02-19T02:53:49.860Z,99.99
2019-02-19T02:54:49.851Z,99.99
2019-02-19T02:55:49.840Z,99.99
2019-02-19T02:56:49.838Z,99.99
2019-02-19T02:57:49.825Z,99.99
2019-02-19T02:58:49.814Z,99.99
2019-02-19T02:59:49.810Z,99.99
2019-02-19T03:00:49.798Z,99.99
2019-02-19T03:01:49.791Z,99.99
2019-02-19T03:02:49.804Z,99.99
2019-02-19T03:03:49.768Z,99.99
2019-02-19T03:04:49.765Z,99.99
2019-02-19T03:05:49.758Z,99.99
2019-02-19T03:06:49.743Z,99.99
2019-02-19T03:07:49.738Z,99.99
2019-02-19T03:08:49.734Z,99.99
2019-02-19T03:09:49.717Z,99.99
2019-02-19T03:10:49.708Z,99.99
2019-02-19T03:11:49.701Z,99.99
2019-02-19T03:12:49.686Z,99.99
2019-02-19T03:13:49.679Z,99.99
2019-02-19T03:14:49.670Z,99.99
2019-02-19T03:15:49.661Z,99.99
2019-02-19T03:16:49.652Z,99.99
2019-02-19T03:17:49.646Z,99.99
2019-02-19T03:18:49.634Z,99.99
2019-02-19T03:19:49.625Z,99.99
2019-02-19T03:20:49.617Z,99.99
2019-02-19T03:21:49.607Z,99.99
2019-02-19T03:22:49.595Z,99.99
2019-02-19T03:23:49.587Z,99.99
2019-02-19T03:24:49.577Z,99.99
2019-02-19T03:25:49.569Z,99.99
2019-02-19T03:26:49.559Z,99.99
2019-02-19T03:27:49.551Z,99.99
2019-02-19T03:28:49.560Z,99.99
2019-02-19T03:29:49.537Z,99.99
2019-02-19T03:30:49.523Z,99.99
2019-02-19T03:31:49.517Z,99.99
2019-02-19T03:32:49.506Z,99.99
2019-02-19T03:33:49.496Z,99.99
2019-02-19T03:34:49.487Z,99.99
2019-02-19T03:35:49.477Z,99.99
2019-02-19T03:36:49.468Z,99.99
2019-02-19T03:37:49.463Z,99.99
2019-02-19T03:38:49.449Z,99.99
2019-02-19T03:39:49.444Z,99.99
2019-02-19T03:40:49.431Z,99.99
2019-02-19T03:41:49.426Z,99.99
2019-02-19T03:42:49.415Z,99.99
2019-02-19T03:43:49.403Z,99.99
2019-02-19T03:44:49.395Z,99.99
2019-02-19T03:45:49.386Z,99.99
2019-02-19T03:46:49.371Z,99.99
2019-02-19T03:47:49.366Z,99.99
2019-02-19T03:48:49.358Z,99.99
2019-02-19T03:49:49.368Z,99.99
2019-02-19T03:50:49.339Z,99.99
2019-02-19T03:51:49.337Z,99.99
2019-02-19T03:52:49.325Z,99.99
2019-02-19T03:53:49.312Z,99.99
2019-02-19T03:54:49.304Z,99.99
2019-02-19T03:55:49.301Z,99.99
2019-02-19T03:56:49.284Z,99.99
2019-02-19T03:57:49.276Z,99.99
2019-02-19T03:58:49.267Z,99.99
2019-02-19T03:59:49.258Z,99.99
2019-02-19T04:00:49.246Z,99.99
2019-02-19T04:01:49.278Z,99.99
2019-02-19T04:02:49.228Z,99.99
2019-02-19T04:03:49.219Z,99.99
2019-02-19T04:04:49.211Z,99.99
2019-02-19T04:05:49.203Z,99.99
2019-02-19T04:06:49.193Z,99.99
2019-02-19T04:07:49.184Z,99.99
2019-02-19T04:08:49.176Z,99.99
2019-02-19T04:09:49.171Z,99.99
2019-02-19T04:10:49.154Z,99.99
2019-02-19T04:11:49.144Z,99.99
2019-02-19T04:12:49.139Z,99.99
2019-02-19T04:13:49.126Z,99.72
2019-02-19T04:14:49.118Z,99.96
2019-02-19T04:15:49.113Z,99.99
2019-02-19T04:16:49.102Z,99.58
2019-02-19T04:17:49.091Z,99.77
2019-02-19T04:18:49.077Z,99.58
2019-02-19T04:19:49.075Z,99.68
2019-02-19T04:20:49.063Z,99.68
2019-02-19T04:21:49.060Z,99.39
2019-02-19T04:22:49.052Z,99.68
2019-02-19T04:23:49.039Z,99.30
2019-02-19T04:24:49.028Z,98.92
2019-02-19T04:25:49.024Z,99.39
2019-02-19T04:26:49.009Z,98.73
2019-02-19T04:27:49.002Z,99.20
2019-02-19T04:28:48.993Z,99.49
2019-02-19T04:29:48.985Z,99.30
2019-02-19T04:30:48.973Z,98.73
2019-02-19T04:31:48.965Z,98.35
2019-02-19T04:32:48.957Z,99.11
2019-02-19T04:33:48.946Z,98.92
2019-02-19T04:34:48.939Z,98.92
2019-02-19T04:35:48.929Z,98.73
2019-02-19T04:36:48.921Z,98.44
2019-02-19T04:37:48.916Z,98.63
2019-02-19T04:38:48.903Z,98.73
2019-02-19T04:39:48.894Z,98.16
2019-02-19T04:40:48.882Z,98.35
2019-02-19T04:41:48.874Z,98.35
2019-02-19T04:42:48.870Z,98.07
2019-02-19T04:43:48.856Z,98.07
2019-02-19T04:44:48.850Z,98.44
2019-02-19T04:45:48.842Z,97.88
2019-02-19T04:46:48.831Z,97.78
2019-02-19T04:47:48.821Z,97.88
2019-02-19T04:48:48.816Z,97.88
2019-02-19T04:49:48.804Z,98.07
2019-02-19T04:50:48.793Z,98.35
2019-02-19T04:51:48.783Z,97.88
2019-02-19T04:52:48.780Z,97.69
2019-02-19T04:53:48.768Z,97.69
2019-02-19T04:54:48.764Z,97.97
2019-02-19T04:55:48.748Z,97.50
2019-02-19T04:56:48.739Z,97.69
2019-02-19T04:57:48.730Z,97.88
2019-02-19T04:58:48.723Z,97.21
2019-02-19T04:59:48.714Z,97.59
2019-02-19T05:00:48.705Z,97.31
2019-02-19T05:01:48.695Z,97.69
2019-02-19T05:02:48.688Z,97.69
2019-02-19T05:03:48.677Z,98.07
2019-02-19T05:04:48.668Z,97.88
2019-02-19T05:05:48.670Z,97.88
2019-02-19T05:06:48.654Z,97.97
2019-02-19T05:07:48.642Z,97.88
2019-02-19T05:08:48.635Z,97.78
2019-02-19T05:09:48.625Z,97.78
2019-02-19T05:10:48.615Z,97.97
2019-02-19T05:11:48.625Z,97.21
2019-02-19T05:12:48.598Z,97.40
2019-02-19T05:13:48.590Z,97.69
2019-02-19T05:14:48.587Z,97.40
2019-02-19T05:15:48.572Z,97.78
2019-02-19T05:16:48.564Z,97.69
2019-02-19T05:17:48.557Z,97.40
2019-02-19T05:18:48.543Z,97.78
2019-02-19T05:19:48.538Z,98.35
2019-02-19T05:20:48.528Z,98.35
2019-02-19T05:21:48.520Z,97.50
2019-02-19T05:22:48.509Z,97.69
2019-02-19T05:23:48.502Z,98.25
2019-02-19T05:24:48.499Z,98.07
2019-02-19T05:27:20.088Z,98.73
2019-02-19T05:28:20.058Z,98.54
2019-02-19T05:30:13.457Z,98.16
2019-02-19T05:31:13.435Z,98.44
2019-02-19T05:33:06.821Z,98.73
2019-02-19T05:34:06.812Z,99.49
2019-02-19T05:35:59.705Z,98.73
2019-02-19T05:36:59.680Z,98.73
2019-02-19T05:38:52.551Z,98.63
2019-02-19T05:39:52.587Z,98.92
2019-02-19T05:41:45.414Z,98.82
2019-02-19T05:42:45.387Z,98.44
2019-02-19T05:44:38.255Z,98.54
2019-02-19T05:45:38.244Z,98.44
2019-02-19T05:47:31.728Z,98.25
2019-02-19T05:48:31.707Z,98.63
2019-02-19T05:50:24.598Z,98.25
2019-02-19T05:51:24.580Z,98.35
2019-02-19T05:53:17.978Z,98.25
2019-02-19T05:54:17.956Z,98.25
2019-02-19T05:55:17.946Z,97.78
2019-02-19T05:56:17.937Z,98.16
2019-02-19T05:57:17.926Z,98.44
2019-02-19T05:58:17.919Z,98.16
2019-02-19T05:59:17.913Z,98.07
2019-02-19T06:00:17.900Z,98.35
2019-02-19T06:01:17.891Z,98.63
2019-02-19T06:02:17.884Z,97.69
2019-02-19T06:03:17.878Z,97.69
2019-02-19T06:04:17.864Z,97.02
2019-02-19T06:05:17.859Z,97.02
2019-02-19T06:06:17.847Z,97.31
2019-02-19T06:07:17.859Z,97.02
2019-02-19T06:08:17.828Z,96.78
2019-02-19T06:09:17.828Z,96.41
2019-02-19T06:10:17.817Z,96.88
2019-02-19T06:11:17.805Z,96.69
2019-02-19T06:12:17.795Z,96.50
2019-02-19T06:13:17.784Z,95.93
2019-02-19T06:14:17.801Z,96.31
2019-02-19T06:15:17.773Z,96.41
2019-02-19T06:16:17.759Z,95.74
2019-02-19T06:17:17.751Z,96.41
2019-02-19T06:18:17.742Z,96.22
2019-02-19T06:19:17.731Z,95.65
2019-02-19T06:20:17.724Z,96.03
2019-02-19T06:21:17.717Z,96.59
2019-02-19T06:22:17.707Z,96.12
2019-02-19T06:23:17.696Z,96.03
2019-02-19T06:24:17.688Z,95.65
2019-02-19T06:25:17.681Z,95.74
2019-02-19T06:26:17.672Z,96.03
2019-02-19T06:27:17.661Z,95.84
2019-02-19T06:28:17.653Z,95.55
2019-02-19T06:29:17.643Z,95.65
2019-02-19T06:30:17.942Z,95.84
2019-02-19T06:31:17.626Z,95.93
2019-02-19T06:32:17.619Z,95.65
2019-02-19T06:33:17.609Z,95.84
2019-02-19T06:34:17.603Z,95.74
2019-02-19T06:35:17.593Z,95.84
2019-02-19T06:36:17.584Z,95.74
2019-02-19T06:37:17.582Z,95.84
2019-02-19T06:38:17.566Z,95.84
2019-02-19T06:39:17.556Z,95.93
2019-02-19T06:40:17.548Z,95.74
2019-02-19T06:41:17.541Z,96.22
2019-02-19T06:42:17.531Z,95.36
2019-02-19T06:43:17.524Z,95.36
2019-02-19T06:44:17.521Z,95.36
2019-02-19T06:45:17.507Z,95.46
2019-02-19T06:46:17.498Z,94.98
2019-02-19T06:47:17.490Z,94.89
2019-02-19T06:48:17.486Z,95.07
2019-02-19T06:49:17.470Z,94.98
2019-02-19T06:50:17.464Z,95.27
2019-02-19T06:51:17.454Z,95.07
2019-02-19T06:52:17.444Z,94.98
2019-02-19T06:53:17.439Z,95.12
2019-02-19T06:54:17.436Z,94.79
2019-02-19T06:55:17.421Z,94.42
2019-02-19T06:56:17.413Z,94.56
2019-02-19T06:57:17.406Z,94.27
2019-02-19T06:58:17.399Z,93.70
2019-02-19T06:59:17.387Z,93.80
2019-02-19T07:00:17.383Z,93.89
2019-02-19T07:01:17.369Z,93.70
2019-02-19T07:02:17.363Z,93.89
2019-02-19T07:03:17.352Z,93.41
2019-02-19T07:04:17.347Z,93.51
2019-02-19T07:05:17.337Z,93.04
2019-02-19T07:06:17.330Z,93.23
2019-02-19T07:07:17.323Z,92.75
2019-02-19T07:08:17.311Z,92.94
2019-02-19T07:09:17.304Z,92.75
2019-02-19T07:10:17.301Z,92.85
2019-02-19T07:11:17.288Z,93.23
2019-02-19T07:12:17.280Z,92.85
2019-02-19T07:13:17.269Z,92.75
2019-02-19T07:14:17.266Z,92.94
2019-02-19T07:15:17.267Z,92.47
2019-02-19T07:16:17.245Z,92.75
2019-02-19T07:17:17.238Z,92.56
2019-02-19T07:18:17.230Z,92.66
2019-02-19T07:19:17.223Z,92.85
2019-02-19T07:20:17.215Z,92.09
2019-02-19T07:21:17.206Z,92.04
2019-02-19T07:22:17.199Z,92.13
2019-02-19T07:23:17.190Z,91.94
2019-02-19T07:24:17.183Z,91.94
2019-02-19T07:25:17.181Z,91.66
2019-02-19T07:26:17.165Z,91.66
2019-02-19T07:27:17.157Z,91.19
2019-02-19T07:28:17.147Z,90.71
2019-02-19T07:29:17.140Z,91.19
2019-02-19T07:30:17.133Z,91.66
2019-02-19T07:31:17.125Z,90.80
2019-02-19T07:32:17.124Z,90.80
2019-02-19T07:33:17.108Z,90.71
2019-02-19T07:34:17.102Z,91.09
2019-02-19T07:35:17.093Z,90.90
2019-02-19T07:36:17.086Z,90.71
2019-02-19T07:37:17.079Z,90.61
2019-02-19T07:38:17.070Z,90.33
2019-02-19T07:39:17.061Z,90.05
2019-02-19T07:40:17.544Z,90.42
2019-02-19T07:41:17.046Z,90.71
2019-02-19T07:42:17.040Z,90.42
2019-02-19T07:43:17.030Z,90.33
2019-02-19T07:44:17.023Z,90.14
2019-02-19T07:45:17.015Z,90.14
2019-02-19T07:46:17.016Z,90.47
2019-02-19T07:47:24.471Z,89.80
2019-02-19T07:48:16.995Z,90.09
2019-02-19T07:49:16.987Z,89.57
2019-02-19T07:50:16.977Z,89.90
2019-02-19T07:51:16.962Z,90.14
2019-02-19T07:52:16.961Z,89.86
2019-02-19T07:53:16.956Z,90.09
2019-02-19T07:54:16.950Z,89.80
2019-02-19T07:55:16.937Z,89.90
2019-02-19T07:56:16.930Z,90.19
2019-02-19T07:57:16.926Z,89.90
2019-02-19T07:58:16.920Z,89.42
2019-02-19T07:59:16.909Z,90.09
2019-02-19T08:00:16.902Z,89.61
2019-02-19T08:01:16.894Z,89.42
2019-02-19T08:02:16.886Z,88.95
2019-02-19T08:03:16.877Z,88.67
2019-02-19T08:04:16.871Z,88.95
2019-02-19T08:05:16.866Z,88.57
2019-02-19T08:06:16.861Z,88.00
2019-02-19T08:07:16.859Z,88.67
2019-02-19T08:08:16.841Z,88.19
2019-02-19T08:09:16.836Z,87.90
2019-02-19T08:10:16.828Z,87.95
2019-02-19T08:11:16.821Z,87.95
2019-02-19T08:12:16.812Z,87.66
2019-02-19T08:13:16.804Z,87.57
2019-02-19T08:14:16.798Z,87.38
2019-02-19T08:15:16.790Z,86.90
2019-02-19T08:16:16.783Z,87.47
2019-02-19T08:17:16.782Z,87.66
2019-02-19T08:18:16.772Z,87.28
2019-02-19T08:19:16.761Z,87.09
2019-02-19T08:20:16.755Z,86.99
2019-02-19T08:21:16.756Z,87.28
2019-02-19T08:22:16.745Z,87.19
2019-02-19T08:23:16.734Z,86.90
2019-02-19T08:24:16.727Z,87.19
2019-02-19T08:25:16.718Z,86.52
2019-02-19T08:26:16.713Z,86.43
2019-02-19T08:27:16.703Z,86.33
2019-02-19T08:28:16.698Z,86.43
2019-02-19T08:29:16.693Z,86.43
2019-02-19T08:30:16.682Z,86.52
2019-02-19T08:31:16.675Z,86.61
2019-02-19T08:32:16.670Z,86.71
2019-02-19T08:33:16.663Z,86.52
2019-02-19T08:34:16.656Z,86.52
2019-02-19T08:35:16.647Z,86.66
2019-02-19T08:36:16.641Z,86.57
2019-02-19T08:37:16.636Z,87.28
2019-02-19T08:38:16.627Z,86.47
2019-02-19T08:39:16.620Z,86.57
2019-02-19T08:40:16.623Z,86.28
2019-02-19T08:41:16.608Z,86.24
2019-02-19T08:42:16.603Z,86.66
2019-02-19T08:43:16.592Z,86.47
2019-02-19T08:44:16.593Z,86.71
2019-02-19T08:45:16.582Z,86.43
2019-02-19T08:46:16.575Z,86.43
2019-02-19T08:47:16.572Z,86.57
2019-02-19T08:48:16.558Z,86.85
2019-02-19T08:49:16.556Z,86.99
2019-02-19T08:50:16.545Z,87.09
2019-02-19T08:51:16.537Z,86.90
2019-02-19T08:52:16.533Z,87.09
2019-02-19T08:53:16.528Z,86.61
2019-02-19T08:54:16.519Z,86.99
2019-02-19T08:55:16.512Z,86.90
2019-02-19T08:56:16.505Z,86.80
2019-02-19T08:57:16.500Z,87.28
2019-02-19T08:58:16.493Z,87.38
2019-02-19T08:59:16.484Z,87.38
2019-02-19T09:00:16.479Z,87.85
2019-02-19T09:01:16.478Z,87.28
2019-02-19T09:02:16.463Z,87.28
2019-02-19T09:03:16.992Z,87.57
2019-02-19T09:04:16.452Z,87.57
2019-02-19T09:05:16.443Z,88.04
2019-02-19T09:06:16.441Z,88.52
2019-02-19T09:07:16.432Z,88.04
2019-02-19T09:08:16.421Z,88.71
2019-02-19T09:09:16.414Z,88.23
2019-02-19T09:10:16.408Z,88.33
2019-02-19T09:11:16.400Z,88.52
2019-02-19T09:12:16.396Z,88.52
2019-02-19T09:13:16.389Z,88.61
2019-02-19T09:14:16.380Z,88.33
2019-02-19T09:15:16.373Z,87.76
2019-02-19T09:16:16.375Z,88.33
2019-02-19T09:17:16.361Z,87.76
2019-02-19T09:18:16.354Z,87.61
2019-02-19T09:19:16.348Z,87.42
2019-02-19T09:20:16.345Z,87.80
2019-02-19T09:21:16.333Z,86.94
2019-02-19T09:22:16.328Z,87.13
2019-02-19T09:23:16.318Z,87.32
2019-02-19T09:24:16.313Z,86.94
2019-02-19T09:25:16.308Z,87.13
2019-02-19T09:26:16.299Z,87.32
2019-02-19T09:27:16.291Z,87.13
2019-02-19T09:28:16.290Z,86.47
2019-02-19T09:29:16.322Z,86.94
2019-02-19T09:30:16.275Z,86.61
2019-02-19T09:31:16.264Z,87.75
2019-02-19T09:32:16.260Z,87.18
2019-02-19T09:33:16.252Z,86.61
2019-02-19T09:34:16.246Z,85.75
2019-02-19T09:35:16.239Z,86.61
2019-02-19T09:36:16.233Z,85.94
2019-02-19T09:37:16.226Z,85.85
2019-02-19T09:38:16.223Z,85.08
2019-02-19T09:39:16.215Z,85.28
2019-02-19T09:40:16.213Z,85.37
2019-02-19T09:41:16.201Z,85.85
2019-02-19T09:42:16.195Z,85.18
2019-02-19T09:43:16.188Z,85.85
2019-02-19T09:44:16.183Z,86.61
2019-02-19T09:45:16.175Z,86.42
2019-02-19T09:46:16.168Z,86.13
2019-02-19T09:47:16.163Z,86.04
2019-02-19T09:48:16.157Z,86.42
2019-02-19T09:49:16.149Z,86.13
2019-02-19T09:50:16.147Z,86.51
2019-02-19T09:51:16.156Z,86.22
2019-02-19T09:52:16.140Z,85.85
2019-02-19T09:53:16.124Z,85.94
2019-02-19T09:54:16.117Z,85.18
2019-02-19T09:55:16.115Z,85.37
2019-02-19T09:56:16.109Z,86.22
2019-02-19T09:57:16.114Z,85.85
2019-02-19T09:58:16.092Z,86.08
2019-02-19T09:59:16.087Z,85.56
2019-02-19T10:00:16.079Z,86.13
2019-02-19T10:01:16.074Z,86.32
2019-02-19T10:02:16.150Z,86.04
2019-02-19T10:03:16.070Z,86.42
2019-02-19T10:04:16.055Z,86.51
2019-02-19T10:05:16.052Z,86.80
2019-02-19T10:06:16.041Z,86.99
2019-02-19T10:07:16.036Z,87.08
2019-02-19T10:08:16.031Z,87.08
2019-02-19T10:09:16.024Z,87.46
2019-02-19T10:10:16.017Z,87.46
2019-02-19T10:11:16.017Z,87.08
2019-02-19T10:12:16.005Z,87.65
2019-02-19T10:13:15.999Z,87.65
2019-02-19T10:14:15.993Z,88.08
2019-02-19T10:15:15.987Z,87.51
2019-02-19T10:16:15.979Z,88.04
2019-02-19T10:17:15.977Z,88.37
2019-02-19T10:18:15.968Z,88.37
2019-02-19T10:19:15.960Z,88.84
2019-02-19T10:20:15.955Z,88.37
2019-02-19T10:21:15.950Z,88.56
2019-02-19T10:22:15.943Z,87.89
2019-02-19T10:23:15.935Z,87.89
2019-02-19T10:24:15.931Z,88.18
2019-02-19T10:25:15.924Z,88.08
2019-02-19T10:26:15.918Z,87.98
2019-02-19T10:27:15.911Z,88.27
2019-02-19T10:28:15.909Z,88.46
2019-02-19T10:29:15.907Z,89.03
2019-02-19T10:30:15.898Z,88.65
2019-02-19T10:31:15.887Z,88.65
2019-02-19T10:32:15.894Z,88.37
2019-02-19T10:33:15.876Z,88.37
2019-02-19T10:34:15.893Z,88.37
2019-02-19T10:35:16.469Z,88.84
2019-02-19T10:36:15.861Z,88.18
2019-02-19T10:37:15.860Z,88.65
2019-02-19T10:38:15.848Z,88.93
2019-02-19T10:39:15.839Z,89.22
2019-02-19T10:40:15.833Z,89.03
2019-02-19T10:41:15.830Z,88.31
2019-02-19T10:42:15.824Z,87.98
2019-02-19T10:43:15.814Z,88.79
2019-02-19T10:44:15.809Z,88.60
2019-02-19T10:45:15.808Z,88.51
2019-02-19T10:46:15.810Z,88.70
2019-02-19T10:47:15.791Z,88.89
2019-02-19T10:48:18.933Z,88.75
2019-02-19T10:49:15.782Z,89.22
2019-02-19T10:50:15.773Z,89.22
2019-02-19T10:51:15.769Z,89.07
2019-02-19T10:52:15.764Z,89.36
2019-02-19T10:53:15.762Z,89.36
2019-02-19T10:54:15.755Z,89.07
2019-02-19T10:55:15.746Z,88.12
2019-02-19T10:56:15.741Z,88.22
2019-02-19T10:57:15.731Z,88.03
2019-02-19T10:58:22.663Z,88.70
2019-02-19T10:59:15.725Z,88.12
2019-02-19T11:00:15.717Z,88.60
2019-02-19T11:01:15.711Z,88.60
2019-02-19T11:02:15.705Z,87.74
2019-02-19T11:03:15.710Z,88.22
2019-02-19T11:04:15.695Z,88.03
2019-02-19T11:05:15.689Z,88.12
2019-02-19T11:06:15.688Z,87.74
2019-02-19T11:07:15.677Z,87.65
2019-02-19T11:08:15.672Z,87.46
2019-02-19T11:09:15.668Z,87.65
2019-02-19T11:10:15.663Z,87.65
2019-02-19T11:11:15.655Z,87.84
2019-02-19T11:12:15.652Z,87.07
2019-02-19T11:13:15.650Z,87.74
2019-02-19T11:14:15.639Z,87.65
2019-02-19T11:15:17.385Z,87.46
2019-02-19T11:16:15.640Z,87.84
2019-02-19T11:17:15.622Z,87.07
2019-02-19T11:18:15.620Z,87.74
2019-02-19T11:19:15.614Z,87.07
2019-02-19T11:20:15.608Z,87.07
2019-02-19T11:21:19.516Z,87.27
2019-02-19T11:22:15.597Z,86.51
2019-02-19T11:23:15.590Z,86.69
2019-02-19T11:24:15.592Z,87.46
2019-02-19T11:25:15.579Z,87.36
2019-02-19T11:26:15.575Z,87.46
2019-02-19T11:27:16.740Z,87.36
2019-02-19T11:28:15.563Z,87.07
2019-02-19T11:29:15.567Z,87.07
2019-02-19T11:30:15.553Z,87.27
2019-02-19T11:31:15.547Z,87.55
2019-02-19T11:32:15.542Z,87.46
2019-02-19T11:33:15.537Z,87.36
2019-02-19T11:34:15.533Z,87.27
2019-02-19T11:35:15.525Z,86.98
2019-02-19T11:36:15.521Z,86.98
2019-02-19T11:37:15.517Z,87.46
2019-02-19T11:38:15.510Z,87.74
2019-02-19T11:39:15.505Z,88.03
2019-02-19T11:40:15.498Z,88.22
2019-02-19T11:41:15.494Z,88.03
2019-02-19T11:42:15.490Z,88.22
2019-02-19T11:43:15.482Z,88.22
2019-02-19T11:44:15.476Z,88.51
2019-02-19T11:45:15.472Z,89.07
2019-02-19T11:46:15.465Z,88.70
2019-02-19T11:47:15.461Z,88.89
2019-02-19T11:48:15.454Z,88.22
2019-02-19T11:49:15.449Z,88.89
2019-02-19T11:50:15.443Z,88.41
2019-02-19T11:51:15.436Z,88.89
2019-02-19T11:52:15.431Z,88.41
2019-02-19T11:53:15.424Z,88.22
2019-02-19T11:54:15.420Z,88.60
2019-02-19T11:55:15.414Z,88.03
2019-02-19T11:56:15.414Z,88.22
2019-02-19T11:57:15.404Z,87.74
2019-02-19T11:58:15.400Z,87.46
2019-02-19T11:59:15.402Z,87.27
2019-02-19T12:00:15.404Z,87.27
2019-02-19T12:01:15.381Z,87.07
2019-02-19T12:02:15.382Z,87.27
2019-02-19T12:03:15.370Z,87.46
2019-02-19T12:04:15.363Z,87.84
2019-02-19T12:05:15.360Z,87.27
2019-02-19T12:06:15.353Z,87.21
2019-02-19T12:07:15.349Z,87.31
2019-02-19T12:08:15.343Z,87.07
2019-02-19T12:09:15.337Z,87.17
2019-02-19T12:10:15.334Z,86.98
2019-02-19T12:11:15.325Z,86.88
2019-02-19T12:12:15.321Z,87.12
2019-02-19T12:13:15.315Z,86.74
2019-02-19T12:14:15.311Z,86.74
2019-02-19T12:15:15.303Z,86.45
2019-02-19T12:16:15.299Z,86.65
2019-02-19T12:17:15.296Z,86.83
2019-02-19T12:18:15.290Z,86.93
2019-02-19T12:19:15.284Z,86.83
2019-02-19T12:20:15.277Z,86.16
2019-02-19T12:21:15.273Z,85.97
2019-02-19T12:22:15.273Z,86.16
2019-02-19T12:23:15.263Z,85.50
2019-02-19T12:24:15.257Z,86.36
2019-02-19T12:25:15.256Z,86.16
2019-02-19T12:26:15.249Z,85.88
2019-02-19T12:27:15.243Z,85.41
2019-02-19T12:28:15.236Z,85.50
2019-02-19T12:29:15.230Z,85.78
2019-02-19T12:30:15.226Z,85.69
2019-02-19T12:31:15.222Z,84.83
2019-02-19T12:32:15.214Z,84.83
2019-02-19T12:33:15.213Z,85.78
2019-02-19T12:34:15.206Z,84.92
2019-02-19T12:35:15.200Z,85.50
2019-02-19T12:36:15.195Z,85.69
2019-02-19T12:37:15.192Z,85.12
2019-02-19T12:38:15.185Z,85.41
2019-02-19T12:39:15.181Z,84.92
2019-02-19T12:40:15.183Z,85.41
2019-02-19T12:41:15.173Z,85.69
2019-02-19T12:42:15.166Z,85.31
2019-02-19T12:43:15.159Z,85.60
2019-02-19T12:44:15.155Z,85.21
2019-02-19T12:45:15.174Z,84.74
2019-02-19T12:46:15.145Z,84.92
2019-02-19T12:47:15.145Z,84.92
2019-02-19T12:48:15.134Z,84.74
2019-02-19T12:49:16.487Z,84.74
2019-02-19T12:50:15.126Z,84.74
2019-02-19T12:51:15.119Z,84.92
2019-02-19T12:52:15.118Z,84.74
2019-02-19T12:53:15.109Z,84.45
2019-02-19T12:54:15.105Z,84.64
2019-02-19T12:55:15.100Z,84.83
2019-02-19T12:56:15.096Z,84.83
2019-02-19T12:57:15.089Z,84.74
2019-02-19T12:58:15.083Z,84.16
2019-02-19T12:59:15.080Z,84.92
2019-02-19T13:00:15.075Z,85.12
2019-02-19T13:01:16.122Z,85.41
2019-02-19T13:02:15.063Z,84.74